Tony, Wisconsin
Current Conditions -  °F | °C
As of 8:35 AM on Thursday 27 Nov 2014 (Local Time) from KRCX Reporting Station
Clear Clear  
Wind Chill: -15°   Ceiling: Unl
Heat Index: -2°   Visibility: 10mi
Dew Point: -6°   Wind: 7mph
Humidity: 82%   Direction: 310°NW
Pressure: 30.42"   Gusts: NA
Location:  45.48°N, 90.99°W
Report Text: KRCX 271435Z AUTO 31006KT 10SM CLR M19/M21 A3042 RMK AO2 T11881212
Loading
Personal Weather Stations






























Interactive Weather Map New forecast layout! Learn more

10-Day Weather Forecast

Advertisements
Track Severe Weather on mobile